Home > Products > Valid Products > TAF

000
FTUS43 KGID 011720
TAFGRI
TAF
KGRI 011720Z 0118/0218 20008KT P6SM SCT050 BKN120
     FM020000 20010KT P6SM VCTS SCT080CB BKN150
     FM020400 20008KT P6SM SCT150=



000
FTUS43 KGID 011720
TAFGRI
TAF
KGRI 011720Z 0118/0218 20008KT P6SM SCT050 BKN120
     FM020000 20010KT P6SM VCTS SCT080CB BKN150
     FM020400 20008KT P6SM SCT150=



000
FTUS43 KGID 011720
TAFGRI
TAF
KGRI 011720Z 0118/0218 20008KT P6SM SCT050 BKN120
     FM020000 20010KT P6SM VCTS SCT080CB BKN150
     FM020400 20008KT P6SM SCT150=



000
FTUS43 KGID 011720
TAFGRI
TAF
KGRI 011720Z 0118/0218 20008KT P6SM SCT050 BKN120
     FM020000 20010KT P6SM VCTS SCT080CB BKN150
     FM020400 20008KT P6SM SCT150=



000
FTUS43 KGID 011120
TAFGRI
TAF
KGRI 011120Z 0112/0212 VRB05KT P6SM VCTS SCT050CB BKN120
      TEMPO 0112/0114 07015KT 5SM TSRA SCT030CB BKN050
     FM011400 23008KT P6SM SCT050 BKN120
     FM020000 20010KT P6SM VCTS SCT080CB BKN150=



000
FTUS43 KGID 011120
TAFGRI
TAF
KGRI 011120Z 0112/0212 VRB05KT P6SM VCTS SCT050CB BKN120
      TEMPO 0112/0114 07015KT 5SM TSRA SCT030CB BKN050
     FM011400 23008KT P6SM SCT050 BKN120
     FM020000 20010KT P6SM VCTS SCT080CB BKN150=



000
FTUS43 KGID 011120
TAFGRI
TAF
KGRI 011120Z 0112/0212 VRB05KT P6SM VCTS SCT050CB BKN120
      TEMPO 0112/0114 07015KT 5SM TSRA SCT030CB BKN050
     FM011400 23008KT P6SM SCT050 BKN120
     FM020000 20010KT P6SM VCTS SCT080CB BKN150=



000
FTUS43 KGID 011120
TAFGRI
TAF
KGRI 011120Z 0112/0212 VRB05KT P6SM VCTS SCT050CB BKN120
      TEMPO 0112/0114 07015KT 5SM TSRA SCT030CB BKN050
     FM011400 23008KT P6SM SCT050 BKN120
     FM020000 20010KT P6SM VCTS SCT080CB BKN150=



000
FTUS43 KGID 010741 AAA
TAFGRI
TAF AMD
KGRI 010741Z 0108/0206 VRB05KT P6SM VCTS SCT080CB BKN120
     FM011400 23008KT P6SM SCT150
     FM012200 20010KT P6SM VCTS SCT080CB BKN150=



000
FTUS43 KGID 010534
TAFGRI
TAF
KGRI 010534Z 0106/0206 VRB05KT P6SM SCT150
     FM011400 23008KT P6SM SCT150
     FM012200 20010KT P6SM VCTS SCT080CB BKN150=



000
FTUS43 KGID 010534
TAFGRI
TAF
KGRI 010534Z 0106/0206 VRB05KT P6SM SCT150
     FM011400 23008KT P6SM SCT150
     FM012200 20010KT P6SM VCTS SCT080CB BKN150=



000
FTUS43 KGID 010534
TAFGRI
TAF
KGRI 010534Z 0106/0206 VRB05KT P6SM SCT150
     FM011400 23008KT P6SM SCT150
     FM012200 20010KT P6SM VCTS SCT080CB BKN150=



000
FTUS43 KGID 010146 AAG
TAFGRI
TAF AMD
KGRI 010146Z 0102/0124 15010KT P6SM VCTS SCT045CB BKN150
     FM010500 VRB05KT P6SM SCT150
     FM011400 26008KT P6SM BKN150=



000
FTUS43 KGID 010146 AAG
TAFGRI
TAF AMD
KGRI 010146Z 0102/0124 15010KT P6SM VCTS SCT045CB BKN150
     FM010500 VRB05KT P6SM SCT150
     FM011400 26008KT P6SM BKN150=



000
FTUS43 KGID 010146 AAG
TAFGRI
TAF AMD
KGRI 010146Z 0102/0124 15010KT P6SM VCTS SCT045CB BKN150
     FM010500 VRB05KT P6SM SCT150
     FM011400 26008KT P6SM BKN150=



000
FTUS43 KGID 010146 AAG
TAFGRI
TAF AMD
KGRI 010146Z 0102/0124 15010KT P6SM VCTS SCT045CB BKN150
     FM010500 VRB05KT P6SM SCT150
     FM011400 26008KT P6SM BKN150=



000
FTUS43 KGID 010107 AAF
TAFGRI
TAF AMD
KGRI 010107Z 0101/0124 28016KT 4SM TSRA BKN060CB
     FM010200 08008KT P6SM VCTS SCT045CB BKN150
     FM010500 VRB05KT P6SM SCT150
     FM011400 26008KT P6SM BKN150=



000
FTUS43 KGID 010107 AAF
TAFGRI
TAF AMD
KGRI 010107Z 0101/0124 28016KT 4SM TSRA BKN060CB
     FM010200 08008KT P6SM VCTS SCT045CB BKN150
     FM010500 VRB05KT P6SM SCT150
     FM011400 26008KT P6SM BKN150=



000
FTUS43 KGID 010107 AAF
TAFGRI
TAF AMD
KGRI 010107Z 0101/0124 28016KT 4SM TSRA BKN060CB
     FM010200 08008KT P6SM VCTS SCT045CB BKN150
     FM010500 VRB05KT P6SM SCT150
     FM011400 26008KT P6SM BKN150=



000
FTUS43 KGID 010107 AAF
TAFGRI
TAF AMD
KGRI 010107Z 0101/0124 28016KT 4SM TSRA BKN060CB
     FM010200 08008KT P6SM VCTS SCT045CB BKN150
     FM010500 VRB05KT P6SM SCT150
     FM011400 26008KT P6SM BKN150=



000
FTUS43 KGID 010056 AAE
TAFGRI
TAF AMD
KGRI 010056Z 0101/0124 14009KT P6SM VCTS BKN060CB
     FM010200 08008KT P6SM VCTS SCT045CB BKN150
     FM010500 VRB05KT P6SM SCT150
     FM011400 26008KT P6SM BKN150=



000
FTUS43 KGID 010056 AAE
TAFGRI
TAF AMD
KGRI 010056Z 0101/0124 14009KT P6SM VCTS BKN060CB
     FM010200 08008KT P6SM VCTS SCT045CB BKN150
     FM010500 VRB05KT P6SM SCT150
     FM011400 26008KT P6SM BKN150=



000
FTUS43 KGID 010037 AAD
TAFGRI
TAF AMD
KGRI 010037Z 0101/0124 14009KT 3SM RA VCTS BKN060CB
     FM010200 08008KT P6SM VCTS SCT045CB BKN150
     FM010500 VRB05KT P6SM SCT150
     FM011400 26008KT P6SM BKN150=



000
FTUS43 KGID 010037 AAD
TAFGRI
TAF AMD
KGRI 010037Z 0101/0124 14009KT 3SM RA VCTS BKN060CB
     FM010200 08008KT P6SM VCTS SCT045CB BKN150
     FM010500 VRB05KT P6SM SCT150
     FM011400 26008KT P6SM BKN150=



000
FTUS43 KGID 010010 AAC
TAFGRI
TAF AMD
KGRI 010010Z 0100/0124 16008KT 5SM -TSRA BKN060CB
     FM010100 08008KT P6SM VCTS SCT045CB BKN150
     FM010500 VRB05KT P6SM SCT150
     FM011400 26008KT P6SM BKN150=



000
FTUS43 KGID 010010 AAC
TAFGRI
TAF AMD
KGRI 010010Z 0100/0124 16008KT 5SM -TSRA BKN060CB
     FM010100 08008KT P6SM VCTS SCT045CB BKN150
     FM010500 VRB05KT P6SM SCT150
     FM011400 26008KT P6SM BKN150=



000
FTUS43 KGID 010010 AAC
TAFGRI
TAF AMD
KGRI 010010Z 0100/0124 16008KT 5SM -TSRA BKN060CB
     FM010100 08008KT P6SM VCTS SCT045CB BKN150
     FM010500 VRB05KT P6SM SCT150
     FM011400 26008KT P6SM BKN150=



000
FTUS43 KGID 010010 AAC
TAFGRI
TAF AMD
KGRI 010010Z 0100/0124 16008KT 5SM -TSRA BKN060CB
     FM010100 08008KT P6SM VCTS SCT045CB BKN150
     FM010500 VRB05KT P6SM SCT150
     FM011400 26008KT P6SM BKN150=



000
FTUS43 KGID 010000 AAB
TAFGRI
TAF AMD
KGRI 010000Z 0100/0124 01015G25KT 2SM +TSRA BKN060CB
     FM010100 08008KT P6SM VCTS SCT045CB BKN150
     FM010500 VRB05KT P6SM SCT150
     FM011400 26008KT P6SM BKN150=



000
FTUS43 KGID 010000 AAB
TAFGRI
TAF AMD
KGRI 010000Z 0100/0124 01015G25KT 2SM +TSRA BKN060CB
     FM010100 08008KT P6SM VCTS SCT045CB BKN150
     FM010500 VRB05KT P6SM SCT150
     FM011400 26008KT P6SM BKN150=



000
FTUS43 KGID 010000 AAB
TAFGRI
TAF AMD
KGRI 010000Z 0100/0124 01015G25KT 2SM +TSRA BKN060CB
     FM010100 08008KT P6SM VCTS SCT045CB BKN150
     FM010500 VRB05KT P6SM SCT150
     FM011400 26008KT P6SM BKN150=



000
FTUS43 KGID 010000 AAB
TAFGRI
TAF AMD
KGRI 010000Z 0100/0124 01015G25KT 2SM +TSRA BKN060CB
     FM010100 08008KT P6SM VCTS SCT045CB BKN150
     FM010500 VRB05KT P6SM SCT150
     FM011400 26008KT P6SM BKN150=



000
FTUS43 KGID 312355 AAA
TAFGRI
TAF AMD
KGRI 312355Z 0100/0124 08008KT P6SM VCTS SCT045CB BKN150
      TEMPO 0100/0101 04015G25KT
     FM010500 VRB05KT P6SM SCT150
     FM011400 26008KT P6SM BKN150=



000
FTUS43 KGID 312320
TAFGRI
TAF
KGRI 312320Z 0100/0124 08008KT P6SM VCTS SCT045CB BKN150
     FM010500 VRB05KT P6SM SCT150
     FM011400 26008KT P6SM BKN150=



000
FTUS43 KGID 312320
TAFGRI
TAF
KGRI 312320Z 0100/0124 08008KT P6SM VCTS SCT045CB BKN150
     FM010500 VRB05KT P6SM SCT150
     FM011400 26008KT P6SM BKN150=



000
FTUS43 KGID 311720
TAFGRI
TAF
KGRI 311720Z 3118/0118 24008KT P6SM FEW025
     FM312300 16008KT P6SM VCTS SCT040CB BKN150
     FM010600 VRB05KT P6SM SCT150=



000
FTUS43 KGID 311720
TAFGRI
TAF
KGRI 311720Z 3118/0118 24008KT P6SM FEW025
     FM312300 16008KT P6SM VCTS SCT040CB BKN150
     FM010600 VRB05KT P6SM SCT150=



000
FTUS43 KGID 311120
TAFGRI
TAF
KGRI 311120Z 3112/0112 VRB06KT P6SM FEW150
     FM312300 16008KT P6SM VCTS SCT050CB BKN150
     FM010600 VRB05KT P6SM SCT150=



000
FTUS43 KGID 311120
TAFGRI
TAF
KGRI 311120Z 3112/0112 VRB06KT P6SM FEW150
     FM312300 16008KT P6SM VCTS SCT050CB BKN150
     FM010600 VRB05KT P6SM SCT150=



000
FTUS43 KGID 310523
TAFGRI
TAF
KGRI 310523Z 3106/0106 VRB06KT P6SM FEW150
     FM010000 16008KT P6SM VCTS SCT050CB BKN150=



000
FTUS43 KGID 310523
TAFGRI
TAF
KGRI 310523Z 3106/0106 VRB06KT P6SM FEW150
     FM010000 16008KT P6SM VCTS SCT050CB BKN150=



000
FTUS43 KGID 310523
TAFGRI
TAF
KGRI 310523Z 3106/0106 VRB06KT P6SM FEW150
     FM010000 16008KT P6SM VCTS SCT050CB BKN150=



000
FTUS43 KGID 310523
TAFGRI
TAF
KGRI 310523Z 3106/0106 VRB06KT P6SM FEW150
     FM010000 16008KT P6SM VCTS SCT050CB BKN150=



000
FTUS43 KGID 302320
TAFGRI
TAF
KGRI 302320Z 3100/3124 VRB06KT P6SM FEW150=



000
FTUS43 KGID 302320
TAFGRI
TAF
KGRI 302320Z 3100/3124 VRB06KT P6SM FEW150=



000
FTUS43 KGID 301735
TAFGRI
TAF
KGRI 301735Z 3018/3118 22011KT P6SM SCT100=



000
FTUS43 KGID 301735
TAFGRI
TAF
KGRI 301735Z 3018/3118 22011KT P6SM SCT100=



000
FTUS43 KGID 301735
TAFGRI
TAF
KGRI 301735Z 3018/3118 22011KT P6SM SCT100=



000
FTUS43 KGID 301735
TAFGRI
TAF
KGRI 301735Z 3018/3118 22011KT P6SM SCT100=



000
FTUS43 KGID 301120
TAFGRI
TAF
KGRI 301120Z 3012/3112 21009KT P6SM FEW150=



000
FTUS43 KGID 301120
TAFGRI
TAF
KGRI 301120Z 3012/3112 21009KT P6SM FEW150=



000
FTUS43 KGID 300523
TAFGRI
TAF
KGRI 300523Z 3006/3106 22008KT P6SM FEW150=



000
FTUS43 KGID 300523
TAFGRI
TAF
KGRI 300523Z 3006/3106 22008KT P6SM FEW150=



000
FTUS43 KGID 300523
TAFGRI
TAF
KGRI 300523Z 3006/3106 22008KT P6SM FEW150=



000
FTUS43 KGID 300523
TAFGRI
TAF
KGRI 300523Z 3006/3106 22008KT P6SM FEW150=



000
FTUS43 KGID 292320
TAFGRI
TAF
KGRI 292320Z 3000/3024 VRB06KT P6SM FEW150=



000
FTUS43 KGID 292320
TAFGRI
TAF
KGRI 292320Z 3000/3024 VRB06KT P6SM FEW150=



    US Dept of Commerce
    National Oceanic and Atmospheric Administration
    National Weather Service
    1325 East West Highway
    Silver Spring, MD 20910
    Page Author: NWS Internet Services Team
Disclaimer
Information Quality
Credits
Glossary
Privacy Policy
Freedom of Information Act (FOIA)
About Us
Career Opportunities